HEBA

Borg El Arab International Airport

Alexandria, Egypt
METAR HEBA 120000Z 31007KT CAVOK 13/11 Q1019 NOSIG
Observed Flight Rules
Dec-12 @ 00:00 UTC (42 minutes ago) Visual Flight Rules
Wind Visibility Clouds
310° at 7 knots 10,000+ meters
  • Clear skies
Temperatures Readings
Current 13°C / 55°F
Dewpoint 11°C / 52°F
Humidity 88%
Altimeter 30.09" Hg
Pressure 1019 hPa
Elevation 54
METAR HEBA 120000Z 31007KT CAVOK 13/11 Q1019 NOSIG
Observed Flight Rules
Dec-12 @ 00:00 UTC
(42 minutes ago)
VFR
Wind Visibility
310° at 7 knots 10,000+ meters
Clouds
  • Clear skies
Temperature Dewpoint
13°C / 55°F 11°C / 52°F
Humidity Altimeter Pressure
88% 30.09" Hg 1019 hPa